createdAt,value
2022-12-28T00:01:15.911Z,63.50
2022-12-28T00:03:42.935Z,63.10
2022-12-28T00:06:10.234Z,62.80
2022-12-28T00:08:37.272Z,62.60
2022-12-28T00:11:08.065Z,62.30
2022-12-28T00:13:37.590Z,62.50
2022-12-28T00:16:24.848Z,62.40
2022-12-28T00:18:53.074Z,62.20
2022-12-28T00:21:20.045Z,62.10
2022-12-28T00:23:52.825Z,62.20
2022-12-28T00:26:19.865Z,62.10
2022-12-28T00:28:47.226Z,62.30
2022-12-28T00:31:14.238Z,62.60
2022-12-28T00:33:41.373Z,62.90
2022-12-28T00:36:08.539Z,63.00
2022-12-28T00:38:35.602Z,63.20
2022-12-28T00:41:02.541Z,63.40
2022-12-28T00:43:29.553Z,63.30
2022-12-28T00:45:56.698Z,63.20
2022-12-28T00:48:23.740Z,63.20
2022-12-28T00:50:50.817Z,62.90
2022-12-28T00:53:17.904Z,63.20
2022-12-28T00:55:44.860Z,63.20
2022-12-28T00:58:11.790Z,63.40
2022-12-28T01:00:38.717Z,63.50
2022-12-28T01:03:05.786Z,63.50
2022-12-28T01:05:32.825Z,63.60
2022-12-28T01:07:59.883Z,63.80
2022-12-28T01:10:27.032Z,63.90
2022-12-28T01:12:54.044Z,64.40
2022-12-28T01:15:21.000Z,64.80
2022-12-28T01:17:47.899Z,65.00
2022-12-28T01:20:14.869Z,65.30
2022-12-28T01:22:42.065Z,65.80
2022-12-28T01:25:09.289Z,66.60
2022-12-28T01:27:36.198Z,66.80
2022-12-28T01:30:03.384Z,66.80
2022-12-28T01:32:30.404Z,66.60
2022-12-28T01:34:58.093Z,66.20
2022-12-28T01:37:25.066Z,66.00
2022-12-28T01:39:52.092Z,65.70
2022-12-28T01:42:19.325Z,65.80
2022-12-28T01:44:48.671Z,65.90
2022-12-28T01:47:16.501Z,66.00
2022-12-28T01:49:55.380Z,65.80
2022-12-28T01:52:24.198Z,65.80
2022-12-28T01:54:57.113Z,65.70
2022-12-28T01:57:25.444Z,65.60
2022-12-28T01:59:55.537Z,65.20
2022-12-28T02:02:22.792Z,64.60
2022-12-28T02:04:49.918Z,64.40
2022-12-28T02:07:18.692Z,64.60
2022-12-28T02:10:43.530Z,64.70
2022-12-28T02:12:33.827Z,65.00
2022-12-28T02:15:01.205Z,65.50
2022-12-28T02:17:28.213Z,65.60
2022-12-28T02:19:55.364Z,65.60
2022-12-28T02:22:33.261Z,65.30
2022-12-28T02:25:14.047Z,65.50
2022-12-28T02:27:46.119Z,66.10
2022-12-28T02:30:13.265Z,66.00
2022-12-28T02:32:43.144Z,65.90
2022-12-28T02:35:13.470Z,66.20
2022-12-28T02:37:43.233Z,66.20
2022-12-28T02:40:13.770Z,66.10
2022-12-28T02:42:40.901Z,65.90
2022-12-28T02:45:27.260Z,66.00
2022-12-28T02:48:12.980Z,66.20
2022-12-28T02:50:46.291Z,66.40
2022-12-28T02:53:33.152Z,66.60
2022-12-28T02:56:09.128Z,66.90
2022-12-28T02:58:41.847Z,66.70
2022-12-28T03:01:27.668Z,66.40
2022-12-28T03:04:03.651Z,66.30
2022-12-28T03:07:03.282Z,66.10
2022-12-28T03:09:42.237Z,66.10
2022-12-28T03:12:10.817Z,66.10
2022-12-28T03:14:54.182Z,66.00
2022-12-28T03:17:40.379Z,65.90
2022-12-28T03:20:31.526Z,65.70
2022-12-28T03:23:17.009Z,65.80
2022-12-28T03:26:02.898Z,65.20
2022-12-28T03:28:48.605Z,65.00
2022-12-28T03:31:17.744Z,65.80
2022-12-28T03:33:45.629Z,66.20
2022-12-28T03:36:27.949Z,66.00
2022-12-28T03:39:02.354Z,66.40
2022-12-28T03:41:35.044Z,66.80
2022-12-28T03:44:04.836Z,67.00
2022-12-28T03:46:34.709Z,66.30
2022-12-28T03:49:01.706Z,66.00
2022-12-28T03:51:29.022Z,66.20
2022-12-28T03:53:55.941Z,66.20
2022-12-28T03:56:26.037Z,66.20
2022-12-28T03:58:53.256Z,66.30
2022-12-28T04:01:20.335Z,66.50
2022-12-28T04:03:47.292Z,66.40
2022-12-28T04:06:19.456Z,67.40
2022-12-28T04:08:46.317Z,67.00
2022-12-28T04:11:13.451Z,66.90
2022-12-28T04:13:40.387Z,66.20
2022-12-28T04:16:08.523Z,66.90
2022-12-28T04:18:35.523Z,66.20
2022-12-28T04:21:02.457Z,66.00
2022-12-28T04:23:29.443Z,65.70
2022-12-28T04:25:59.943Z,65.60
2022-12-28T04:28:26.990Z,65.60
2022-12-28T04:30:54.008Z,66.00
2022-12-28T04:33:21.034Z,65.70
2022-12-28T04:35:47.915Z,65.60
2022-12-28T04:38:14.863Z,65.80
2022-12-28T04:40:41.819Z,64.70
2022-12-28T04:43:08.828Z,64.30
2022-12-28T04:45:35.734Z,63.90
2022-12-28T04:48:02.694Z,63.80
2022-12-28T04:50:29.694Z,63.90
2022-12-28T04:52:56.582Z,63.90
2022-12-28T04:55:33.085Z,64.00
2022-12-28T04:58:00.475Z,64.20
2022-12-28T05:00:27.491Z,64.40
2022-12-28T05:02:54.614Z,64.10
2022-12-28T05:05:21.711Z,64.10
2022-12-28T05:07:48.668Z,64.10
2022-12-28T05:10:15.634Z,64.60
2022-12-28T05:12:42.609Z,64.40
2022-12-28T05:15:09.719Z,64.60
2022-12-28T05:17:37.638Z,64.40
2022-12-28T05:20:04.823Z,63.90
2022-12-28T05:22:35.016Z,63.70
2022-12-28T05:25:04.988Z,63.40
2022-12-28T05:27:31.927Z,63.70
2022-12-28T05:29:59.018Z,63.40
2022-12-28T05:32:26.044Z,63.10
2022-12-28T05:34:52.987Z,63.00
2022-12-28T05:37:22.333Z,63.10
2022-12-28T05:39:50.997Z,63.30
2022-12-28T05:42:18.113Z,63.70
2022-12-28T05:44:45.109Z,64.00
2022-12-28T05:47:13.929Z,64.20
2022-12-28T05:49:40.919Z,64.10
2022-12-28T05:52:07.827Z,63.90
2022-12-28T05:54:34.884Z,63.70
2022-12-28T05:57:01.869Z,63.20
2022-12-28T05:59:29.019Z,63.10
2022-12-28T06:01:56.077Z,62.90
2022-12-28T06:04:23.242Z,62.50
2022-12-28T06:06:50.338Z,62.40
2022-12-28T06:09:17.414Z,62.20
2022-12-28T06:11:44.378Z,62.00
2022-12-28T06:14:11.546Z,61.80
2022-12-28T06:16:39.561Z,61.80
2022-12-28T06:19:07.190Z,62.30
2022-12-28T06:21:34.801Z,62.60
2022-12-28T06:24:02.574Z,63.70
2022-12-28T06:26:30.247Z,63.40
2022-12-28T06:28:57.512Z,63.70
2022-12-28T06:31:28.458Z,63.30
2022-12-28T06:33:58.046Z,62.90
2022-12-28T06:36:26.294Z,62.50
2022-12-28T06:38:53.634Z,62.60
2022-12-28T06:41:23.839Z,62.50
2022-12-28T06:43:51.088Z,62.30
2022-12-28T06:46:18.635Z,61.90
2022-12-28T06:48:45.761Z,61.90
2022-12-28T06:51:20.421Z,61.80
2022-12-28T06:53:47.669Z,61.80
2022-12-28T06:56:15.873Z,61.10
2022-12-28T06:58:42.989Z,60.90
2022-12-28T07:01:14.276Z,60.50
2022-12-28T07:03:41.623Z,60.50
2022-12-28T07:06:08.760Z,60.30
2022-12-28T07:08:35.793Z,60.40
2022-12-28T07:11:06.447Z,59.70
2022-12-28T07:13:33.589Z,59.90
2022-12-28T07:16:04.003Z,60.30
2022-12-28T07:18:31.363Z,59.90
2022-12-28T07:20:59.245Z,60.00
2022-12-28T07:23:30.217Z,60.00
2022-12-28T07:26:04.653Z,60.00
2022-12-28T07:28:31.757Z,59.90
2022-12-28T07:30:58.669Z,60.00
2022-12-28T07:33:26.805Z,59.90
2022-12-28T07:35:54.052Z,59.60
2022-12-28T07:38:22.433Z,59.50
2022-12-28T07:40:49.459Z,59.20
2022-12-28T07:43:20.071Z,57.70
2022-12-28T07:45:47.149Z,53.90
2022-12-28T07:48:14.315Z,49.60
2022-12-28T07:50:41.346Z,45.10
2022-12-28T07:53:08.300Z,42.20
2022-12-28T07:55:35.442Z,41.20
2022-12-28T07:58:02.549Z,39.60
2022-12-28T08:00:30.444Z,38.20
2022-12-28T08:02:57.479Z,37.50
2022-12-28T08:05:26.652Z,36.20
2022-12-28T08:07:57.164Z,35.70
2022-12-28T08:10:27.021Z,35.90
2022-12-28T08:12:54.203Z,33.70
2022-12-28T08:15:22.312Z,32.50
2022-12-28T08:17:49.279Z,31.90
2022-12-28T08:20:16.355Z,30.90
2022-12-28T08:22:43.390Z,30.30
2022-12-28T08:25:10.609Z,29.60
2022-12-28T08:27:38.703Z,29.00
2022-12-28T08:30:06.189Z,29.00
2022-12-28T08:32:33.199Z,28.50
2022-12-28T08:35:03.150Z,28.20
2022-12-28T08:49:35.342Z,26.30
2022-12-28T08:52:05.841Z,26.40
2022-12-28T08:54:34.647Z,26.10
2022-12-28T08:57:06.131Z,25.60
2022-12-28T08:59:36.416Z,25.40
2022-12-28T09:02:07.343Z,25.20
2022-12-28T09:04:37.959Z,25.30
2022-12-28T09:07:24.844Z,25.50
2022-12-28T09:09:57.743Z,25.10
2022-12-28T09:12:24.828Z,24.80
2022-12-28T09:14:51.961Z,24.60
2022-12-28T09:17:19.010Z,24.30
2022-12-28T09:19:46.651Z,24.70
2022-12-28T09:25:36.532Z,23.90
2022-12-28T09:28:03.570Z,23.80
2022-12-28T09:30:32.761Z,23.50
2022-12-28T09:33:18.328Z,23.30
2022-12-28T09:35:45.360Z,23.20
2022-12-28T09:38:12.299Z,23.20
2022-12-28T09:40:39.229Z,23.10
2022-12-28T09:43:07.098Z,23.00
2022-12-28T09:45:34.098Z,23.00
2022-12-28T09:48:03.386Z,22.60
2022-12-28T09:50:35.293Z,22.70
2022-12-28T09:53:21.177Z,22.60
2022-12-28T09:55:55.943Z,22.90
2022-12-28T09:58:23.048Z,22.60
2022-12-28T10:00:52.671Z,22.90
2022-12-28T10:03:20.685Z,22.70
2022-12-28T10:06:31.192Z,22.50
2022-12-28T10:09:01.195Z,22.30
2022-12-28T10:11:28.697Z,22.30
2022-12-28T10:13:58.566Z,22.10
2022-12-28T10:16:26.868Z,22.50
2022-12-28T10:18:58.723Z,22.60
2022-12-28T10:21:32.522Z,23.00
2022-12-28T10:26:47.383Z,22.80
2022-12-28T10:29:18.215Z,22.70
2022-12-28T10:31:45.188Z,23.20
2022-12-28T10:34:15.945Z,23.40
2022-12-28T10:36:46.070Z,23.10
2022-12-28T10:39:18.659Z,23.00
2022-12-28T10:41:46.150Z,22.40
2022-12-28T10:44:40.801Z,22.30
2022-12-28T10:47:17.040Z,23.30
2022-12-28T10:50:02.798Z,23.20
2022-12-28T10:52:39.039Z,22.90
2022-12-28T10:55:24.068Z,22.10
2022-12-28T10:58:27.466Z,21.20
2022-12-28T11:00:48.670Z,21.50
2022-12-28T11:03:27.752Z,22.10
2022-12-28T11:06:09.862Z,22.00
2022-12-28T11:08:39.465Z,22.20
2022-12-28T11:11:06.937Z,22.50
2022-12-28T11:13:33.988Z,21.70
2022-12-28T11:16:00.993Z,21.90
2022-12-28T11:18:30.824Z,23.20
2022-12-28T11:21:01.590Z,24.40
2022-12-28T11:23:31.932Z,25.90
2022-12-28T11:25:59.209Z,27.00
2022-12-28T11:28:26.081Z,28.30
2022-12-28T11:30:53.168Z,29.20
2022-12-28T11:33:32.669Z,29.90
2022-12-28T11:36:00.538Z,30.30
2022-12-28T11:38:41.807Z,30.70
2022-12-28T11:41:39.537Z,31.70
2022-12-28T11:44:06.523Z,32.50
2022-12-28T11:46:39.424Z,33.40
2022-12-28T11:49:25.093Z,33.80
2022-12-28T11:52:10.465Z,34.00
2022-12-28T11:54:40.681Z,34.50
2022-12-28T11:57:08.275Z,35.00
2022-12-28T11:59:36.861Z,35.00
2022-12-28T12:02:04.539Z,35.40
2022-12-28T12:04:57.904Z,35.90
2022-12-28T12:07:31.030Z,36.20
2022-12-28T12:10:11.503Z,35.70
2022-12-28T12:12:46.879Z,36.00
2022-12-28T12:15:15.208Z,36.10
2022-12-28T12:18:09.892Z,34.30
2022-12-28T12:20:39.915Z,30.90
2022-12-28T12:23:08.310Z,27.80
2022-12-28T12:25:40.473Z,26.30
2022-12-28T12:28:13.058Z,25.60
2022-12-28T12:30:40.091Z,25.10
2022-12-28T12:33:08.830Z,24.90
2022-12-28T12:35:41.104Z,25.30
2022-12-28T12:38:11.321Z,25.30
2022-12-28T12:40:56.888Z,25.10
2022-12-28T12:43:39.158Z,24.70
2022-12-28T12:46:19.976Z,24.20
2022-12-28T12:49:04.448Z,24.10
2022-12-28T12:51:40.318Z,23.90
2022-12-28T12:54:10.514Z,23.30
2022-12-28T12:56:46.679Z,23.00
2022-12-28T12:59:29.005Z,22.80
2022-12-28T13:01:59.411Z,22.90
2022-12-28T13:04:30.288Z,22.80
2022-12-28T13:06:57.822Z,22.90
2022-12-28T13:09:28.048Z,23.00
2022-12-28T13:11:56.437Z,22.80
2022-12-28T13:14:24.999Z,22.60
2022-12-28T13:16:55.886Z,22.80
2022-12-28T13:19:29.392Z,23.20
2022-12-28T13:21:58.133Z,23.20
2022-12-28T13:24:32.078Z,23.10
2022-12-28T13:27:00.583Z,23.30
2022-12-28T13:29:28.707Z,23.40
2022-12-28T13:31:55.841Z,23.70
2022-12-28T13:34:23.285Z,23.70
2022-12-28T13:37:27.453Z,23.90
2022-12-28T13:40:23.587Z,23.50
2022-12-28T13:43:01.835Z,23.70
2022-12-28T13:45:29.448Z,24.00
2022-12-28T13:48:04.020Z,24.20
2022-12-28T13:50:32.970Z,24.10
2022-12-28T13:56:15.276Z,24.50
2022-12-28T13:58:49.279Z,24.80
2022-12-28T14:01:23.809Z,25.00
2022-12-28T14:03:52.756Z,25.30
2022-12-28T14:06:23.215Z,25.90
2022-12-28T14:12:30.480Z,27.70
2022-12-28T14:15:10.303Z,28.90
2022-12-28T14:17:44.442Z,29.60
2022-12-28T14:20:22.965Z,30.40
2022-12-28T14:22:50.041Z,31.00
2022-12-28T14:28:07.457Z,32.00
2022-12-28T14:39:52.729Z,34.70
2022-12-28T14:42:26.164Z,35.50
2022-12-28T14:47:46.578Z,35.70
2022-12-28T14:50:28.703Z,36.10
2022-12-28T14:53:05.120Z,36.50
2022-12-28T14:55:33.643Z,36.80
2022-12-28T14:58:05.156Z,37.30
2022-12-28T15:00:16.209Z,35.70
2022-12-28T15:00:37.413Z,37.70
2022-12-28T15:03:17.646Z,38.20
2022-12-28T15:05:52.046Z,38.60
2022-12-28T15:08:19.614Z,38.80
2022-12-28T15:10:58.585Z,40.20
2022-12-28T15:13:25.997Z,40.60
2022-12-28T15:15:59.731Z,40.70
2022-12-28T15:18:27.442Z,41.20
2022-12-28T15:20:54.601Z,41.60
2022-12-28T15:23:22.031Z,42.30
2022-12-28T15:25:49.757Z,42.80
2022-12-28T15:28:19.546Z,43.00
2022-12-28T15:30:47.897Z,43.20
2022-12-28T15:33:18.404Z,43.60
2022-12-28T15:35:45.508Z,44.50
2022-12-28T15:38:15.611Z,44.30
2022-12-28T15:41:31.004Z,44.70
2022-12-28T15:43:58.188Z,44.90
2022-12-28T15:46:25.284Z,45.20
2022-12-28T15:48:53.473Z,45.10
2022-12-28T15:51:20.688Z,45.20
2022-12-28T15:53:47.872Z,45.30
2022-12-28T15:56:22.135Z,45.30
2022-12-28T15:58:49.451Z,45.30
2022-12-28T16:01:17.603Z,45.70
2022-12-28T16:03:48.189Z,45.90
2022-12-28T16:06:17.464Z,46.00
2022-12-28T16:08:45.761Z,46.70
2022-12-28T16:11:21.870Z,46.80
2022-12-28T16:13:53.435Z,46.80
2022-12-28T16:16:20.838Z,47.60
2022-12-28T16:18:48.409Z,47.20
2022-12-28T16:21:16.218Z,47.10
2022-12-28T16:23:43.968Z,47.20
2022-12-28T16:26:14.753Z,47.40
2022-12-28T16:28:43.603Z,47.70
2022-12-28T16:31:21.806Z,47.70
2022-12-28T16:33:49.071Z,47.80
2022-12-28T16:36:17.689Z,47.90
2022-12-28T16:38:49.563Z,47.80
2022-12-28T16:41:18.564Z,47.80
2022-12-28T16:43:46.569Z,47.80
2022-12-28T16:46:13.788Z,48.00
2022-12-28T16:48:43.699Z,48.40
2022-12-28T16:51:13.051Z,48.60
2022-12-28T16:53:44.136Z,48.70
2022-12-28T16:56:13.426Z,49.10
2022-12-28T16:58:48.770Z,49.40
2022-12-28T17:01:16.770Z,49.70
2022-12-28T17:03:43.873Z,49.80
2022-12-28T17:06:11.131Z,49.50
2022-12-28T17:08:42.567Z,49.40
2022-12-28T17:11:11.393Z,49.30
2022-12-28T17:13:39.535Z,49.50
2022-12-28T17:16:07.911Z,49.60
2022-12-28T17:18:35.091Z,49.60
2022-12-28T17:21:06.738Z,49.50
2022-12-28T17:23:36.067Z,49.40
2022-12-28T17:26:03.457Z,49.40
2022-12-28T17:28:30.848Z,49.30
2022-12-28T17:31:08.002Z,49.40
2022-12-28T17:33:39.206Z,49.60
2022-12-28T17:36:13.357Z,49.80
2022-12-28T17:38:40.864Z,50.00
2022-12-28T17:41:13.489Z,50.10
2022-12-28T17:43:43.029Z,50.20
2022-12-28T17:46:14.938Z,50.10
2022-12-28T17:48:42.373Z,50.40
2022-12-28T17:51:11.581Z,50.60
2022-12-28T17:53:39.315Z,50.70
2022-12-28T17:56:10.183Z,50.60
2022-12-28T17:58:37.328Z,50.90
2022-12-28T18:01:05.321Z,51.10
2022-12-28T18:03:34.075Z,51.50
2022-12-28T18:06:01.554Z,51.60
2022-12-28T18:08:31.396Z,51.40
2022-12-28T18:10:58.800Z,51.00
2022-12-28T18:13:26.015Z,51.00
2022-12-28T18:15:54.047Z,51.10
2022-12-28T18:18:32.646Z,51.10
2022-12-28T18:21:01.735Z,51.30
2022-12-28T18:23:36.875Z,51.20
2022-12-28T18:34:09.765Z,52.70
2022-12-28T18:36:37.919Z,52.70
2022-12-28T18:39:06.152Z,52.80
2022-12-28T18:41:38.352Z,52.80
2022-12-28T18:44:15.602Z,52.60
2022-12-28T18:49:24.777Z,53.10
2022-12-28T18:51:52.113Z,53.30
2022-12-28T18:54:19.186Z,53.50
2022-12-28T18:56:46.192Z,53.50
2022-12-28T18:59:13.589Z,53.40
2022-12-28T19:02:06.370Z,53.30
2022-12-28T19:04:29.773Z,53.40
2022-12-28T19:06:57.829Z,53.60
2022-12-28T19:09:25.172Z,53.60
2022-12-28T19:12:00.976Z,53.60
2022-12-28T19:14:27.970Z,53.80
2022-12-28T19:16:55.990Z,54.00
2022-12-28T19:19:23.257Z,54.30
2022-12-28T19:21:58.223Z,54.40
2022-12-28T19:24:26.133Z,54.70
2022-12-28T19:26:53.938Z,55.10
2022-12-28T19:29:21.266Z,54.50
2022-12-28T19:31:49.326Z,54.60
2022-12-28T19:34:16.559Z,54.80
2022-12-28T19:36:44.873Z,55.00
2022-12-28T19:39:12.240Z,55.00
2022-12-28T19:41:40.378Z,55.10
2022-12-28T19:44:07.324Z,55.20
2022-12-28T19:46:34.864Z,55.50
2022-12-28T19:49:06.803Z,55.50
2022-12-28T19:51:34.788Z,55.60
2022-12-28T19:54:02.120Z,55.60
2022-12-28T19:56:29.559Z,55.40
2022-12-28T19:59:05.479Z,55.50
2022-12-28T20:01:35.395Z,55.60
2022-12-28T20:04:05.893Z,55.90
2022-12-28T20:06:39.824Z,56.10
2022-12-28T20:09:06.995Z,56.30
2022-12-28T20:11:36.779Z,56.40
2022-12-28T20:14:05.030Z,56.30
2022-12-28T20:16:33.049Z,56.40
2022-12-28T20:19:02.066Z,56.50
2022-12-28T20:21:31.904Z,56.20
2022-12-28T20:24:01.187Z,56.20
2022-12-28T20:26:29.169Z,56.20
2022-12-28T20:28:59.225Z,56.30
2022-12-28T20:31:26.425Z,56.20
2022-12-28T20:33:56.112Z,56.60
2022-12-28T20:36:27.266Z,56.60
2022-12-28T20:38:54.991Z,56.60
2022-12-28T20:41:48.834Z,56.90
2022-12-28T20:44:16.984Z,57.00
2022-12-28T20:46:44.145Z,57.20
2022-12-28T20:49:12.718Z,57.20
2022-12-28T20:51:39.887Z,57.20
2022-12-28T20:54:07.215Z,57.10
2022-12-28T20:56:38.397Z,57.10
2022-12-28T20:59:05.989Z,57.10
2022-12-28T21:01:33.311Z,57.30
2022-12-28T21:04:03.089Z,57.80
2022-12-28T21:06:30.217Z,58.30
2022-12-28T21:08:57.222Z,58.20
2022-12-28T21:11:24.304Z,58.40
2022-12-28T21:13:54.439Z,58.60
2022-12-28T21:16:22.591Z,58.60
2022-12-28T21:18:50.076Z,58.60
2022-12-28T21:21:18.254Z,58.50
2022-12-28T21:23:45.294Z,58.50
2022-12-28T21:26:13.391Z,58.80
2022-12-28T21:28:42.017Z,58.80
2022-12-28T21:31:10.468Z,58.60
2022-12-28T21:33:38.625Z,58.90
2022-12-28T21:36:13.916Z,59.00
2022-12-28T21:38:41.009Z,59.10
2022-12-28T21:41:10.383Z,59.00
2022-12-28T21:43:37.551Z,59.50
2022-12-28T21:46:05.365Z,59.00
2022-12-28T21:48:32.819Z,59.00
2022-12-28T21:51:03.818Z,59.00
2022-12-28T21:53:31.374Z,58.90
2022-12-28T21:56:04.203Z,58.90
2022-12-28T21:58:31.216Z,58.90
2022-12-28T22:01:17.435Z,58.90
2022-12-28T22:04:03.453Z,58.90
2022-12-28T22:06:30.639Z,58.70
2022-12-28T22:09:16.347Z,58.50
2022-12-28T22:12:02.268Z,58.60
2022-12-28T22:14:29.298Z,58.50
2022-12-28T22:16:56.679Z,58.40
2022-12-28T22:19:23.951Z,58.40
2022-12-28T22:21:51.136Z,58.30
2022-12-28T22:24:18.403Z,58.30
2022-12-28T22:26:45.630Z,58.40
2022-12-28T22:29:14.124Z,58.50
2022-12-28T22:31:42.220Z,58.40
2022-12-28T22:34:09.357Z,58.60
2022-12-28T22:36:38.519Z,58.70
2022-12-28T22:39:05.652Z,58.90
2022-12-28T22:41:32.910Z,58.90
2022-12-28T22:43:59.902Z,59.80
2022-12-28T22:46:27.018Z,59.50
2022-12-28T22:48:56.507Z,59.70
2022-12-28T22:51:24.289Z,59.70
2022-12-28T22:54:03.127Z,59.70
2022-12-28T22:56:31.362Z,59.50
2022-12-28T22:59:05.171Z,59.50
2022-12-28T23:01:35.073Z,59.20
2022-12-28T23:04:02.415Z,58.90
2022-12-28T23:06:29.340Z,58.60
2022-12-28T23:08:56.292Z,58.40
2022-12-28T23:11:39.696Z,58.20
2022-12-28T23:14:39.589Z,58.10
2022-12-28T23:17:10.444Z,58.20
2022-12-28T23:19:56.347Z,58.10
2022-12-28T23:22:43.037Z,58.00
2022-12-28T23:25:35.621Z,58.10
2022-12-28T23:28:03.734Z,58.20
2022-12-28T23:30:30.775Z,58.40
2022-12-28T23:32:59.795Z,58.70
2022-12-28T23:35:32.873Z,58.90
2022-12-28T23:38:00.129Z,58.80
2022-12-28T23:40:30.107Z,58.80
2022-12-28T23:42:57.458Z,58.60
2022-12-28T23:45:33.764Z,58.60
2022-12-28T23:48:01.526Z,58.50
2022-12-28T23:50:28.610Z,58.50
2022-12-28T23:52:56.936Z,58.50
2022-12-28T23:55:24.444Z,58.70
2022-12-28T23:57:51.542Z,58.70
